Terminal Aerodrome Forecast
Issued by NWS

Home | Current Version | Previous Version | Text Only | Print | Product List | Glossary On
Versions: 1 2 3 4 5 6 7 8 9 10 11 12 13 14 15 16 17 18 19 20 21 22 23 24 25 26 27 28 29 30 31
000
FTUS43 KDLH 020300 AAA
TAFHYR
TAF AMD
KHYR 020312Z 0203/0224 20014KT P6SM VCSH SCT060 BKN100
      WS020/21045KT
      TEMPO 0203/0204 5SM -RA BR BKN035 OVC050
     FM020600 25008KT P6SM SCT050 BKN120
     FM021600 27012G22KT P6SM SKC
     FM021900 25014G25KT P6SM SKC=

USA.gov is the U.S. government's official web portal to all federal, state and local government web resources and services.